Hay múltiples Alarmas Climaticas   Haga clic aquí para obtener mas informacion

Nearby METAR Reports

 

KSJC - San Jose, California, USA
Distance from station: NE 14km
Actualización: 21/02/2018 09:53
Muy nuboso
Muy nuboso
 Viento del ESE
Viento: ESE 7 km/h
Temperatura: 4°C
Temp.Sensacion: 2°C
Rocío: -2°C
Humedad: 65%
Barómetro: 1022.4 hPa
Clouds: Muy nuboso
Visibility: 16 km
Cloud details: Muy nuboso 3048 m
2018/02/21 08:53 KSJC 210853Z AUTO 11004KT 10SM BKN100 04/M02 A3019 RMK AO2 SLP224 T00391022 58010
KNUQ - Moffett Nas/Mtn, California, USA
Distance from station: N 14km
Actualización: 21/02/2018 09:56
Cubierto
Cubierto
 Viento del SSE
Viento: SSE 6 km/h
Temperatura: 6°C
Rocío: 1°C
Humedad: 71%
Barómetro: 1022.7 hPa
Clouds: Cubierto
Visibility: 16 km
Cloud details: Cubierto 2743 m
2018/02/21 08:56 KNUQ 210856Z 15003KT 10SM OVC090 06/01 A3020 RMK AO2 SLP227 T00560006 58011
 
KPAO - Palo Alto, California, USA
Distance from station: NNO 23km
Actualización: 21/02/2018 05:47
NOT Current
Muy nuboso
Muy nuboso
 Viento del calm
Viento: Calma
Clouds: Muy nuboso
Visibility: 16 km
Cloud details: Few Clouds 1219 m
Muy nuboso 6096 m
2018/02/21 04:47 KPAO 210447Z 00000KT 10SM FEW040 BKN200 --/-- A3022 RMK LAST
KRHV - San Jose/Reid, California, USA
Distance from station: ENE 19km
Actualización: 21/02/2018 06:54
NOT Current
Parcialmente nuboso
Parcialmente nuboso
 Viento del calm
Viento: Calma
Temperatura: 6°C
Rocío: -1°C
Humedad: 61%
Barómetro: 1022.7 hPa
Clouds: Parcialmente nuboso
Visibility: 16 km
Cloud details: Parcialmente nuboso 1524 m
2018/02/21 05:54 KRHV 210554Z 00000KT 10SM SCT050 06/M01 A3020 RMK TOWER CLOSED UNTIL 0700 LOCAL
 
KOAK - Oakland, California, USA
Distance from station: NNO 50km
Actualización: 21/02/2018 09:53
Parcialmente nuboso
Parcialmente nuboso
 Viento del E
Viento: E 6 km/h
Temperatura: 6°C
Rocío: 2°C
Humedad: 76%
Barómetro: 1022.4 hPa
Clouds: Parcialmente nuboso
Visibility: 16 km
Cloud details: Few Clouds 2134 m
Parcialmente nuboso 2743 m
2018/02/21 08:53 KOAK 210853Z 10003KT 10SM FEW070 SCT090 06/02 A3019 RMK AO2 SLP222 T00610017 58010 $
KSQL - San Carlos Airpo, California, USA
Distance from station: NO 34km
Actualización: 21/02/2018 10:15
Muy nuboso
Muy nuboso
 Viento del calm
Viento: Calma
Temperatura: 7°C
Rocío: 2°C
Humedad: 71%
Barómetro: 1022.4 hPa
Clouds: Muy nuboso
Visibility: 16 km
Cloud details: Muy nuboso 2743 m
2018/02/21 09:15 KSQL 210915Z AUTO 00000KT 10SM BKN090 07/02 A3019 RMK AO2
 
KSFO - San Francisco, California, USA
Distance from station: NO 49km
Actualización: 21/02/2018 09:56
Muy nuboso
Muy nuboso
 Viento del S
Viento: S 6 km/h
Temperatura: 8°C
Rocío: 2°C
Humedad: 66%
Barómetro: 1022 hPa
Clouds: Muy nuboso
Visibility: 16 km
Cloud details: Muy nuboso 2438 m
Muy nuboso 6096 m
2018/02/21 08:56 KSFO 210856Z 19003KT 10SM BKN080 BKN200 08/02 A3018 RMK AO2 SLP220 T00780022 58009
KE16 - San Martin, California, USA
Distance from station: ESE 43km
Actualización: 21/02/2018 09:55
Cubierto
Cubierto
 Viento del calm
Viento: Calma
Temperatura: 1°C
Rocío: -2°C
Humedad: 81%
Barómetro: 1023.4 hPa
Clouds: Cubierto
Visibility: 16 km
Cloud details: Muy nuboso 2134 m
Cubierto 2896 m
2018/02/21 08:55 KE16 210855Z AUTO 00000KT 10SM BKN070 OVC095 01/M02 A3022 RMK AO2
 
KWVI - Watsonville, California, USA
Distance from station: SSE 44km
Actualización: 21/02/2018 09:53
Despejado
Despejado
 Viento del calm
Viento: Calma
Temperatura: 2°C
Rocío: -2°C
Humedad: 75%
Barómetro: 1023 hPa
Clouds: Despejado
Visibility: 16 km
2018/02/21 08:53 KWVI 210853Z AUTO 00000KT 10SM CLR 02/M02 A3021 RMK AO2 SLP229 T00171022 58006
KHAF - Half Moon Bay, California, USA
Distance from station: ONO 50km
Actualización: 21/02/2018 10:15
Few Clouds
Few Clouds
 Viento del calm
Viento: Calma
Temperatura: 2°C
Rocío: 0°C
Humedad: 87%
Barómetro: 1021.3 hPa
Clouds: Few Clouds
Visibility: 16 km
Cloud details: Few Clouds 884 m
2018/02/21 09:15 KHAF 210915Z AUTO 00000KT 10SM FEW029 02/00 A3016 RMK AO2
 
KHWD - Hayward, California, USA
Distance from station: N 44km
Actualización: 21/02/2018 09:54
Muy nuboso
Muy nuboso
 Viento del ESE
Viento: ESE 6 km/h
Temperatura: 5°C
Rocío: -1°C
Humedad: 66%
Barómetro: 1022 hPa
Clouds: Muy nuboso
Visibility: 16 km
Cloud details: Muy nuboso 2896 m
2018/02/21 08:54 KHWD 210854Z AUTO 11003KT 10SM BKN095 05/M01 A3018 RMK AO2 SLP231 T00501006 56009
KLVK - Livermore, California, USA
Distance from station: NNE 51km
Actualización: 21/02/2018 09:53
Muy nuboso
Muy nuboso
 Viento del E
Viento: E 7 km/h
Temperatura: 2°C
Temp.Sensacion: 0°C
Rocío: -2°C
Humedad: 75%
Barómetro: 1022 hPa
Clouds: Muy nuboso
Visibility: 16 km
Cloud details: Muy nuboso 701 m
2018/02/21 08:53 KLVK 210853Z AUTO 09004KT 10SM BKN023 02/M02 A3018 RMK AO2 SLP221 T00171017 58007